createdAt,value
2022-08-16T00:00:03.547Z,951.8600
2022-08-16T00:00:20.183Z,951.8800
2022-08-16T00:00:30.471Z,951.9000
2022-08-16T00:00:47.643Z,951.8600
2022-08-16T00:01:03.190Z,951.8800
2022-08-16T00:01:17.696Z,951.8600
2022-08-16T00:01:29.038Z,951.8600
2022-08-16T00:01:45.777Z,951.8600
2022-08-16T00:01:59.846Z,951.8600
2022-08-16T00:02:13.031Z,951.8600
2022-08-16T00:02:24.499Z,951.8600
2022-08-16T00:02:35.674Z,951.8600
2022-08-16T00:02:46.920Z,951.8400
2022-08-16T00:02:58.347Z,951.8400
2022-08-16T00:03:13.364Z,951.8600
2022-08-16T00:03:26.463Z,951.8400
2022-08-16T00:03:38.009Z,951.8600
2022-08-16T00:03:51.816Z,951.8600
2022-08-16T00:04:05.255Z,951.8600
2022-08-16T00:04:16.810Z,951.8200
2022-08-16T00:04:28.485Z,951.8400
2022-08-16T00:04:39.678Z,951.8600
2022-08-16T00:04:51.267Z,951.8600
2022-08-16T00:05:02.479Z,951.8600
2022-08-16T00:05:13.935Z,951.8600
2022-08-16T00:05:25.096Z,951.8600
2022-08-16T00:05:36.168Z,951.8800
2022-08-16T00:05:57.654Z,951.8800
2022-08-16T00:06:10.141Z,951.8800
2022-08-16T00:06:21.255Z,951.8800
2022-08-16T00:06:32.306Z,951.8600
2022-08-16T00:06:44.078Z,951.8800
2022-08-16T00:06:55.286Z,951.9000
2022-08-16T00:07:06.350Z,951.9000
2022-08-16T00:07:17.434Z,951.8800
2022-08-16T00:07:29.128Z,951.8800
2022-08-16T00:07:40.506Z,951.8800
2022-08-16T00:07:56.440Z,951.8600
2022-08-16T00:08:08.567Z,951.8800
2022-08-16T00:08:30.675Z,951.9000
2022-08-16T00:08:42.655Z,951.9000
2022-08-16T00:08:57.084Z,951.9000
2022-08-16T00:09:08.137Z,951.8800
2022-08-16T00:09:22.013Z,951.8800
2022-08-16T00:09:35.869Z,951.8600
2022-08-16T00:09:47.158Z,951.8800
2022-08-16T00:09:58.827Z,951.8800
2022-08-16T00:10:10.115Z,951.9000
2022-08-16T00:10:27.193Z,951.8600
2022-08-16T00:10:39.700Z,951.8600
2022-08-16T00:10:52.529Z,951.8600
2022-08-16T00:11:04.664Z,951.8600
2022-08-16T00:11:16.592Z,951.8800
2022-08-16T00:11:28.036Z,951.8800
2022-08-16T00:11:39.097Z,951.8800
2022-08-16T00:11:52.731Z,951.8600
2022-08-16T00:12:03.989Z,951.8800
2022-08-16T00:12:17.961Z,951.8800
2022-08-16T00:12:29.822Z,951.9000
2022-08-16T00:12:41.678Z,951.9000
2022-08-16T00:12:52.808Z,951.8800
2022-08-16T00:13:05.843Z,951.8800
2022-08-16T00:13:17.045Z,951.8800
2022-08-16T00:13:28.899Z,951.8800
2022-08-16T00:13:41.830Z,951.8800
2022-08-16T00:13:55.687Z,951.8800
2022-08-16T00:14:08.686Z,951.8800
2022-08-16T00:14:19.927Z,951.8400
2022-08-16T00:14:31.002Z,951.8600
2022-08-16T00:14:42.065Z,951.8600
2022-08-16T00:14:56.836Z,951.8600
2022-08-16T00:15:11.523Z,951.8600
2022-08-16T00:15:23.136Z,951.8800
2022-08-16T00:15:52.147Z,951.9000
2022-08-16T00:15:54.395Z,951.8800
2022-08-16T00:17:00.589Z,951.9000
2022-08-16T00:17:05.459Z,951.8800
2022-08-16T00:17:05.987Z,951.8800
2022-08-16T00:17:06.293Z,951.8800
2022-08-16T00:17:16.271Z,951.9000
2022-08-16T00:17:30.636Z,951.9000
2022-08-16T00:17:56.379Z,951.9000
2022-08-16T00:18:04.582Z,951.9000
2022-08-16T00:18:22.266Z,951.8800
2022-08-16T00:18:38.912Z,951.9000
2022-08-16T00:18:50.113Z,951.9200
2022-08-16T00:19:01.197Z,951.9000
2022-08-16T00:19:13.965Z,951.9000
2022-08-16T00:19:25.183Z,951.9200
2022-08-16T00:19:41.856Z,951.9200
2022-08-16T00:19:55.170Z,951.9000
2022-08-16T00:20:06.476Z,951.9000
2022-08-16T00:20:23.467Z,951.9000
2022-08-16T00:20:35.623Z,951.9000
2022-08-16T00:20:47.445Z,951.9200
2022-08-16T00:21:03.689Z,951.9200
2022-08-16T00:21:15.179Z,951.9000
2022-08-16T00:21:26.331Z,951.9200
2022-08-16T00:21:40.399Z,951.9200
2022-08-16T00:21:53.265Z,951.9000
2022-08-16T00:22:12.732Z,951.9200
2022-08-16T00:22:25.134Z,951.9200
2022-08-16T00:22:36.688Z,951.9200
2022-08-16T00:22:53.626Z,951.9200
2022-08-16T00:23:05.199Z,951.9200
2022-08-16T00:23:17.029Z,951.9200
2022-08-16T00:23:34.455Z,951.9200
2022-08-16T00:23:46.454Z,951.9200
2022-08-16T00:23:57.592Z,951.9400
2022-08-16T00:24:12.094Z,951.9200
2022-08-16T00:24:31.374Z,951.9200
2022-08-16T00:24:40.443Z,951.9200
2022-08-16T00:24:55.732Z,951.9200
2022-08-16T00:25:06.915Z,951.9200
2022-08-16T00:25:18.340Z,951.9000
2022-08-16T00:26:33.664Z,951.9200
2022-08-16T00:26:33.856Z,951.9200
2022-08-16T00:26:34.746Z,951.9200
2022-08-16T00:26:35.846Z,951.9200
2022-08-16T00:26:45.186Z,951.9200
2022-08-16T00:26:54.634Z,951.9400
2022-08-16T00:27:06.836Z,951.9200
2022-08-16T00:27:19.699Z,951.9200
2022-08-16T00:27:31.489Z,951.9200
2022-08-16T00:27:42.584Z,951.9000
2022-08-16T00:27:58.497Z,951.9000
2022-08-16T00:28:09.561Z,951.9000
2022-08-16T00:28:22.352Z,951.9000
2022-08-16T00:28:39.299Z,951.9000
2022-08-16T00:28:54.712Z,951.9000
2022-08-16T00:29:06.112Z,951.9000
2022-08-16T00:29:17.300Z,951.8800
2022-08-16T00:29:29.669Z,951.8600
2022-08-16T00:29:41.183Z,951.8800
2022-08-16T00:30:00.504Z,951.8600
2022-08-16T00:30:19.856Z,951.9000
2022-08-16T00:30:29.123Z,951.9000
2022-08-16T00:30:40.740Z,951.8600
2022-08-16T00:30:52.050Z,951.8800
2022-08-16T00:31:04.583Z,951.8600
2022-08-16T00:31:15.637Z,951.8600
2022-08-16T00:31:26.701Z,951.8600
2022-08-16T00:31:47.164Z,951.8800
2022-08-16T00:32:05.975Z,951.8800
2022-08-16T00:32:18.007Z,951.8400
2022-08-16T00:32:32.872Z,951.8200
2022-08-16T00:32:44.129Z,951.8800
2022-08-16T00:32:57.247Z,951.8600
2022-08-16T00:33:08.531Z,951.8600
2022-08-16T00:33:20.690Z,951.9000
2022-08-16T00:33:33.500Z,951.8600
2022-08-16T00:33:50.233Z,951.8800
2022-08-16T00:34:01.635Z,951.8600
2022-08-16T00:34:18.358Z,951.9000
2022-08-16T00:34:52.388Z,951.8600
2022-08-16T00:34:53.156Z,951.8600
2022-08-16T00:35:03.900Z,951.8600
2022-08-16T00:35:21.005Z,951.8400
2022-08-16T00:35:32.071Z,951.8600
2022-08-16T00:35:46.078Z,951.8600
2022-08-16T00:36:00.877Z,951.8400
2022-08-16T00:36:12.649Z,951.8600
2022-08-16T00:36:23.714Z,951.8400
2022-08-16T00:36:35.359Z,951.8800
2022-08-16T00:36:55.730Z,951.8800
2022-08-16T00:37:07.036Z,951.8400
2022-08-16T00:37:18.516Z,951.8800
2022-08-16T00:37:57.374Z,951.8800
2022-08-16T00:37:58.590Z,951.8600
2022-08-16T00:38:40.619Z,951.8600
2022-08-16T00:38:40.638Z,951.8600
2022-08-16T00:38:40.638Z,951.8800
2022-08-16T00:38:52.709Z,951.8800
2022-08-16T00:39:07.266Z,951.8800
2022-08-16T00:39:24.594Z,951.8600
2022-08-16T00:39:35.774Z,951.8800
2022-08-16T00:39:47.428Z,951.8600
2022-08-16T00:39:59.045Z,951.8800
2022-08-16T00:40:33.540Z,951.8800
2022-08-16T00:40:34.909Z,951.8800
2022-08-16T00:40:50.931Z,951.9000
2022-08-16T00:41:01.152Z,951.9000
2022-08-16T00:41:12.351Z,951.9000
2022-08-16T00:41:23.627Z,951.9000
2022-08-16T00:41:38.333Z,951.9200
2022-08-16T00:41:49.683Z,951.9000
2022-08-16T00:42:00.845Z,951.9000
2022-08-16T00:42:11.966Z,951.9400
2022-08-16T00:42:30.595Z,951.9200
2022-08-16T00:42:40.192Z,951.9400
2022-08-16T00:42:54.189Z,951.9000
2022-08-16T00:43:12.078Z,951.9000
2022-08-16T00:43:23.186Z,951.9000
2022-08-16T00:43:42.503Z,951.8800
2022-08-16T00:43:51.286Z,951.8800
2022-08-16T00:44:05.074Z,951.8800
2022-08-16T00:44:16.145Z,951.8600
2022-08-16T00:44:31.829Z,951.9000
2022-08-16T00:44:44.118Z,951.8600
2022-08-16T00:44:57.278Z,951.8600
2022-08-16T00:45:09.516Z,951.9000
2022-08-16T00:45:20.810Z,951.8800
2022-08-16T00:45:36.485Z,951.8600
2022-08-16T00:45:58.165Z,951.8600
2022-08-16T00:46:32.836Z,951.8600
2022-08-16T00:46:34.429Z,951.8600
2022-08-16T00:46:38.547Z,951.8800
2022-08-16T00:47:05.998Z,951.8600
2022-08-16T00:47:12.470Z,951.8600
2022-08-16T00:47:23.514Z,951.8800
2022-08-16T00:47:34.573Z,951.8800
2022-08-16T00:47:48.856Z,951.8800
2022-08-16T00:48:00.817Z,951.8600
2022-08-16T00:48:28.619Z,951.8800
2022-08-16T00:48:31.707Z,951.8600
2022-08-16T00:48:45.808Z,951.8600
2022-08-16T00:48:56.869Z,951.8800
2022-08-16T00:49:17.594Z,951.9000
2022-08-16T00:49:24.877Z,951.8800
2022-08-16T00:49:39.613Z,951.9000
2022-08-16T00:49:56.233Z,951.9000
2022-08-16T00:50:11.567Z,951.8800
2022-08-16T00:50:35.824Z,951.9000
2022-08-16T00:50:40.388Z,951.9000
2022-08-16T00:50:55.429Z,951.9200
2022-08-16T00:51:06.927Z,951.9000
2022-08-16T00:51:19.997Z,951.9000
2022-08-16T00:51:32.153Z,951.9400
2022-08-16T00:51:44.949Z,951.9400
2022-08-16T00:51:56.297Z,951.9400
2022-08-16T00:52:30.022Z,951.9400
2022-08-16T00:52:30.286Z,951.9400
2022-08-16T00:52:45.696Z,951.9400
2022-08-16T00:52:58.966Z,951.9500
2022-08-16T00:53:10.351Z,951.9500
2022-08-16T00:53:21.978Z,951.9500
2022-08-16T00:53:33.041Z,951.9500
2022-08-16T00:53:44.698Z,951.9700
2022-08-16T00:53:55.788Z,951.9500
2022-08-16T00:54:07.329Z,951.9700
2022-08-16T00:54:22.709Z,951.9900
2022-08-16T00:54:35.810Z,951.9900
2022-08-16T00:54:46.927Z,952.0100
2022-08-16T00:54:59.605Z,951.9700
2022-08-16T00:55:10.734Z,951.9700
2022-08-16T00:55:23.102Z,951.9900
2022-08-16T00:55:37.943Z,951.9900
2022-08-16T00:55:49.380Z,951.9900
2022-08-16T00:56:05.123Z,951.9900
2022-08-16T00:56:55.928Z,951.9900
2022-08-16T00:56:57.096Z,951.9900
2022-08-16T00:56:58.593Z,951.9900
2022-08-16T00:57:07.706Z,952.0100
2022-08-16T00:57:24.083Z,952.0100
2022-08-16T00:57:59.205Z,951.9900
2022-08-16T00:57:59.743Z,951.9900
2022-08-16T00:58:13.071Z,952.0100
2022-08-16T00:58:34.345Z,952.0100
2022-08-16T00:58:43.586Z,951.9900
2022-08-16T00:58:54.742Z,951.9700
2022-08-16T00:59:06.891Z,951.9900
2022-08-16T00:59:18.209Z,951.9900
2022-08-16T00:59:29.971Z,951.9900
2022-08-16T00:59:59.089Z,952.0100
2022-08-16T01:00:01.100Z,952.0100
2022-08-16T01:00:12.300Z,952.0100
2022-08-16T01:00:29.359Z,951.9900
2022-08-16T01:00:40.521Z,951.9900
2022-08-16T01:00:54.002Z,951.9900
2022-08-16T01:01:08.616Z,951.9900
2022-08-16T01:01:21.639Z,951.9700
2022-08-16T01:01:33.259Z,952.0100
2022-08-16T01:01:47.533Z,952.0100
2022-08-16T01:01:58.732Z,951.9900
2022-08-16T01:02:30.612Z,951.9900
2022-08-16T01:02:31.607Z,952.0100
2022-08-16T01:02:47.014Z,952.0100
2022-08-16T01:03:00.172Z,952.0100
2022-08-16T01:03:12.573Z,952.0100
2022-08-16T01:03:30.237Z,952.0100
2022-08-16T01:03:41.324Z,952.0300
2022-08-16T01:03:52.988Z,952.0100
2022-08-16T01:04:05.418Z,952.0100
2022-08-16T01:04:29.306Z,952.0100
2022-08-16T01:04:33.682Z,952.0100
2022-08-16T01:05:10.641Z,952.0300
2022-08-16T01:05:11.292Z,952.0100
2022-08-16T01:05:18.748Z,952.0300
2022-08-16T01:05:35.695Z,952.0500
2022-08-16T01:05:46.762Z,952.0300
2022-08-16T01:05:57.855Z,952.0500
2022-08-16T01:06:40.296Z,952.0300
2022-08-16T01:06:40.868Z,952.0500
2022-08-16T01:06:49.330Z,952.0500
2022-08-16T01:07:02.590Z,952.0500
2022-08-16T01:07:17.523Z,952.0700
2022-08-16T01:07:29.297Z,952.0700
2022-08-16T01:07:51.773Z,952.0500
2022-08-16T01:08:19.598Z,952.0700
2022-08-16T01:08:35.142Z,952.0900
2022-08-16T01:08:37.389Z,952.0900
2022-08-16T01:08:51.164Z,952.0900
2022-08-16T01:09:02.340Z,952.0900
2022-08-16T01:09:15.236Z,952.0900
2022-08-16T01:09:33.505Z,952.0900
2022-08-16T01:09:45.216Z,952.1100
2022-08-16T01:09:56.290Z,952.1300
2022-08-16T01:10:16.172Z,952.1100
2022-08-16T01:10:31.374Z,952.1300
2022-08-16T01:10:42.479Z,952.1100
2022-08-16T01:10:54.074Z,952.1300
2022-08-16T01:11:05.182Z,952.1100
2022-08-16T01:11:17.773Z,952.1100
2022-08-16T01:11:31.409Z,952.1300
2022-08-16T01:11:51.704Z,952.1100
2022-08-16T01:11:59.686Z,952.1100
2022-08-16T01:12:10.914Z,952.1100
2022-08-16T01:12:27.858Z,952.1100
2022-08-16T01:12:39.058Z,952.1100
2022-08-16T01:12:50.671Z,952.1100
2022-08-16T01:13:01.814Z,952.1300
2022-08-16T01:13:15.914Z,952.1100
2022-08-16T01:13:28.082Z,952.1100
2022-08-16T01:13:40.254Z,952.1300
2022-08-16T01:13:51.341Z,952.1100
2022-08-16T01:14:04.524Z,952.1100
2022-08-16T01:14:15.860Z,952.1100
2022-08-16T01:14:31.640Z,952.1300
2022-08-16T01:14:43.538Z,952.1100
2022-08-16T01:14:54.993Z,952.1100
2022-08-16T01:15:06.150Z,952.1100
2022-08-16T01:15:18.773Z,952.1100
2022-08-16T01:15:30.307Z,952.1100
2022-08-16T01:15:43.172Z,952.0900
2022-08-16T01:15:54.956Z,952.0900
2022-08-16T01:16:10.122Z,952.0900
2022-08-16T01:16:21.512Z,952.0900
2022-08-16T01:16:36.851Z,952.0900
2022-08-16T01:16:47.913Z,952.1100
2022-08-16T01:17:00.862Z,952.1100
2022-08-16T01:17:12.009Z,952.0900
2022-08-16T01:17:24.445Z,952.0900
2022-08-16T01:17:36.804Z,952.0700
2022-08-16T01:17:55.839Z,952.0900
2022-08-16T01:18:05.967Z,952.0900
2022-08-16T01:18:39.797Z,952.0900
2022-08-16T01:18:40.739Z,952.1100
2022-08-16T01:18:51.183Z,952.1100
2022-08-16T01:19:02.612Z,952.0900
2022-08-16T01:19:13.881Z,952.0900
2022-08-16T01:19:26.563Z,952.0900
2022-08-16T01:19:40.964Z,952.0900
2022-08-16T01:19:52.108Z,952.0900
2022-08-16T01:20:24.175Z,952.0900
2022-08-16T01:20:30.474Z,952.1100
2022-08-16T01:20:41.824Z,952.1100
2022-08-16T01:20:52.979Z,952.1300
2022-08-16T01:21:04.045Z,952.1300
2022-08-16T01:21:15.194Z,952.1100
2022-08-16T01:21:33.670Z,952.1100
2022-08-16T01:21:43.494Z,952.1300
2022-08-16T01:21:55.919Z,952.1300
2022-08-16T01:22:47.551Z,952.1300
2022-08-16T01:22:49.802Z,952.1300
2022-08-16T01:22:50.064Z,952.1300
2022-08-16T01:23:03.825Z,952.1500
2022-08-16T01:23:19.750Z,952.1500
2022-08-16T01:23:57.949Z,952.1500
2022-08-16T01:24:01.036Z,952.1300
2022-08-16T01:24:05.766Z,952.1500
2022-08-16T01:24:52.292Z,952.1500
2022-08-16T01:24:53.722Z,952.1500
2022-08-16T01:24:56.674Z,952.1500
2022-08-16T01:25:07.815Z,952.1500
2022-08-16T01:25:18.969Z,952.1500
2022-08-16T01:25:34.202Z,952.1300
2022-08-16T01:25:46.006Z,952.1500
2022-08-16T01:26:33.608Z,952.1500
2022-08-16T01:26:34.552Z,952.1500
2022-08-16T01:26:36.923Z,952.1700
2022-08-16T01:26:48.097Z,952.1500
2022-08-16T01:27:03.998Z,952.1700
2022-08-16T01:27:17.487Z,952.1500
2022-08-16T01:27:28.961Z,952.1500
2022-08-16T01:27:40.187Z,952.1300
2022-08-16T01:27:51.781Z,952.1500
2022-08-16T01:28:03.675Z,952.1500
2022-08-16T01:28:19.803Z,952.1300
2022-08-16T01:28:34.701Z,952.1300
2022-08-16T01:28:48.554Z,952.1500
2022-08-16T01:28:59.730Z,952.1300
2022-08-16T01:29:10.781Z,952.1300
2022-08-16T01:29:22.492Z,952.1100
2022-08-16T01:29:58.460Z,952.1100
2022-08-16T01:29:58.515Z,952.0900
2022-08-16T01:30:19.327Z,952.1300
2022-08-16T01:30:27.556Z,952.0900
2022-08-16T01:30:40.118Z,952.0900
2022-08-16T01:30:55.753Z,952.0900
2022-08-16T01:31:06.841Z,952.1100
2022-08-16T01:31:18.472Z,952.0900
2022-08-16T01:31:30.928Z,952.1100
2022-08-16T01:31:43.418Z,952.1100
2022-08-16T01:31:54.659Z,952.1100
2022-08-16T01:32:06.158Z,952.1100
2022-08-16T01:32:31.882Z,952.1100
2022-08-16T01:32:37.919Z,952.1300
2022-08-16T01:32:59.621Z,952.1100
2022-08-16T01:33:14.519Z,952.1300
2022-08-16T01:33:24.031Z,952.1500
2022-08-16T01:33:35.909Z,952.1500
2022-08-16T01:33:47.218Z,952.1100
2022-08-16T01:34:01.044Z,952.1100
2022-08-16T01:34:22.997Z,952.1500
2022-08-16T01:34:29.143Z,952.1300
2022-08-16T01:34:47.438Z,952.1300
2022-08-16T01:34:57.175Z,952.1300
2022-08-16T01:35:08.390Z,952.1300
2022-08-16T01:35:25.452Z,952.1300
2022-08-16T01:35:37.020Z,952.1300
2022-08-16T01:35:52.821Z,952.1300
2022-08-16T01:36:09.323Z,952.1300
2022-08-16T01:36:22.180Z,952.1500
2022-08-16T01:36:37.907Z,952.1300
2022-08-16T01:36:58.149Z,952.1500
2022-08-16T01:37:06.092Z,952.1500
2022-08-16T01:37:17.240Z,952.1300
2022-08-16T01:37:28.315Z,952.1100
2022-08-16T01:37:45.491Z,952.1300
2022-08-16T01:38:02.441Z,952.1100
2022-08-16T01:38:19.653Z,952.1100
2022-08-16T01:38:30.954Z,952.0900
2022-08-16T01:38:49.285Z,952.1100
2022-08-16T01:38:59.082Z,952.1100
2022-08-16T01:39:11.808Z,952.1300
2022-08-16T01:39:24.710Z,952.1100
2022-08-16T01:39:37.703Z,952.0900
2022-08-16T01:39:49.709Z,952.1100
2022-08-16T01:40:00.807Z,952.1100
2022-08-16T01:40:11.851Z,952.0900
2022-08-16T01:40:22.991Z,952.0900
2022-08-16T01:40:34.087Z,952.0900
2022-08-16T01:40:45.162Z,952.1100
2022-08-16T01:40:57.281Z,952.1100
2022-08-16T01:41:19.272Z,952.1100
2022-08-16T01:41:31.419Z,952.1100
2022-08-16T01:41:44.198Z,952.1100
2022-08-16T01:41:55.415Z,952.0900
2022-08-16T01:42:12.173Z,952.1100
2022-08-16T01:42:24.022Z,952.1100
2022-08-16T01:42:36.502Z,952.0900
2022-08-16T01:42:48.020Z,952.0900
2022-08-16T01:43:01.581Z,952.0900
2022-08-16T01:43:12.645Z,952.0700
2022-08-16T01:43:23.794Z,952.0500
2022-08-16T01:43:34.939Z,952.0500
2022-08-16T01:43:45.996Z,952.0500
2022-08-16T01:44:02.959Z,952.0500
2022-08-16T01:44:14.350Z,952.0500
2022-08-16T01:44:38.291Z,952.0500
2022-08-16T01:44:46.710Z,952.0300
2022-08-16T01:45:03.678Z,952.0500
2022-08-16T01:45:15.141Z,952.0500
2022-08-16T01:45:40.390Z,952.0500
2022-08-16T01:45:47.835Z,952.0300
2022-08-16T01:46:31.179Z,952.0300
2022-08-16T01:46:37.908Z,952.0100
2022-08-16T01:46:40.631Z,952.0100
2022-08-16T01:46:52.181Z,952.0300
2022-08-16T01:47:03.347Z,952.0100
2022-08-16T01:47:15.790Z,952.0300
2022-08-16T01:47:29.430Z,952.0300
2022-08-16T01:47:49.219Z,952.0300
2022-08-16T01:48:01.216Z,952.0300
2022-08-16T01:48:20.017Z,952.0700
2022-08-16T01:48:29.382Z,952.0500
2022-08-16T01:48:40.540Z,952.0700
2022-08-16T01:48:57.504Z,952.0700
2022-08-16T01:49:08.698Z,952.0700
2022-08-16T01:49:19.922Z,952.0700
2022-08-16T01:49:45.513Z,952.0500
2022-08-16T01:50:42.164Z,952.0900
2022-08-16T01:50:42.574Z,952.0900
2022-08-16T01:50:42.964Z,952.0900
2022-08-16T01:50:43.165Z,952.0700
2022-08-16T01:51:08.323Z,952.0900
2022-08-16T01:51:17.108Z,952.0900
2022-08-16T01:51:28.634Z,952.1100
2022-08-16T01:51:39.803Z,952.0900
2022-08-16T01:51:50.931Z,952.0700
2022-08-16T01:52:02.079Z,952.0900
2022-08-16T01:52:28.105Z,952.0900
2022-08-16T01:52:32.654Z,952.0700
2022-08-16T01:52:46.513Z,952.0900
2022-08-16T01:52:58.016Z,952.0900
2022-08-16T01:53:10.053Z,952.0700
2022-08-16T01:53:22.176Z,952.0900
2022-08-16T01:53:33.391Z,952.0900
2022-08-16T01:53:44.624Z,952.0700
2022-08-16T01:54:01.573Z,952.0900
2022-08-16T01:54:16.006Z,952.0900
2022-08-16T01:54:30.697Z,952.0900
2022-08-16T01:54:42.322Z,952.0700
2022-08-16T01:54:55.599Z,952.0700
2022-08-16T01:55:06.665Z,952.0500
2022-08-16T01:55:17.835Z,952.0500
2022-08-16T01:55:35.591Z,952.0500
2022-08-16T01:55:53.719Z,952.0500
2022-08-16T01:56:02.799Z,952.0700
2022-08-16T01:56:23.217Z,952.0300
2022-08-16T01:56:31.267Z,952.0300
2022-08-16T01:56:42.485Z,952.0500
2022-08-16T01:56:54.468Z,952.0300
2022-08-16T01:57:07.605Z,952.0300
2022-08-16T01:57:22.984Z,952.0100
2022-08-16T01:57:36.124Z,952.0100
2022-08-16T01:57:53.730Z,952.0100
2022-08-16T01:58:04.125Z,952.0300
2022-08-16T01:58:15.266Z,952.0100
2022-08-16T01:58:32.374Z,951.9900
2022-08-16T01:58:47.984Z,951.9900
2022-08-16T01:58:59.625Z,952.0100
2022-08-16T01:59:15.805Z,951.9700
2022-08-16T01:59:28.230Z,951.9900
2022-08-16T01:59:39.316Z,951.9900
2022-08-16T01:59:50.880Z,951.9900
2022-08-16T02:00:05.911Z,951.9900
2022-08-16T02:00:21.597Z,951.9700
2022-08-16T02:00:38.582Z,951.9900
2022-08-16T02:00:50.380Z,951.9700
2022-08-16T02:01:02.168Z,951.9500
2022-08-16T02:01:13.356Z,951.9700
2022-08-16T02:01:28.832Z,951.9700
2022-08-16T02:01:40.623Z,951.9700
2022-08-16T02:02:00.018Z,951.9700
2022-08-16T02:02:27.208Z,951.9500
2022-08-16T02:02:28.612Z,951.9900
2022-08-16T02:02:42.483Z,951.9700
2022-08-16T02:02:54.051Z,951.9900
2022-08-16T02:03:05.179Z,951.9700
2022-08-16T02:03:16.340Z,951.9700
2022-08-16T02:03:33.304Z,951.9500
2022-08-16T02:03:44.426Z,951.9700
2022-08-16T02:04:10.765Z,951.9700
2022-08-16T02:04:49.303Z,951.9900
2022-08-16T02:04:49.558Z,951.9700
2022-08-16T02:04:54.522Z,951.9700
2022-08-16T02:05:05.994Z,951.9700
2022-08-16T02:05:17.300Z,951.9900
2022-08-16T02:05:30.392Z,951.9700
2022-08-16T02:05:46.658Z,951.9500
2022-08-16T02:05:58.937Z,951.9700
2022-08-16T02:06:10.091Z,951.9900
2022-08-16T02:06:33.716Z,951.9900
2022-08-16T02:06:38.715Z,951.9900
2022-08-16T02:06:50.585Z,951.9700
2022-08-16T02:07:02.385Z,951.9700
2022-08-16T02:07:14.249Z,952.0100
2022-08-16T02:07:25.480Z,951.9900
2022-08-16T02:07:36.619Z,951.9900
2022-08-16T02:07:47.735Z,952.0100
2022-08-16T02:08:03.298Z,951.9900
2022-08-16T02:08:32.859Z,952.0100
2022-08-16T02:08:33.631Z,951.9500
2022-08-16T02:08:45.038Z,951.9700
2022-08-16T02:09:01.996Z,951.9900
2022-08-16T02:09:17.763Z,951.9900
2022-08-16T02:09:33.747Z,951.9700
2022-08-16T02:09:57.522Z,951.9500
2022-08-16T02:10:02.403Z,951.9400
2022-08-16T02:10:14.212Z,951.9700
2022-08-16T02:10:28.978Z,951.9400
2022-08-16T02:10:40.830Z,951.9700
2022-08-16T02:10:52.403Z,951.9500
2022-08-16T02:11:03.484Z,951.9500
2022-08-16T02:11:15.608Z,951.9400
2022-08-16T02:11:26.975Z,951.9200
2022-08-16T02:11:48.246Z,951.9400
2022-08-16T02:12:50.044Z,951.9400
2022-08-16T02:12:50.273Z,951.9200
2022-08-16T02:12:50.570Z,951.9000
2022-08-16T02:12:55.676Z,951.9200
2022-08-16T02:13:07.745Z,951.9200
2022-08-16T02:13:19.421Z,951.9000
2022-08-16T02:13:36.522Z,951.9200
2022-08-16T02:13:54.799Z,951.9400
2022-08-16T02:14:06.007Z,951.9200
2022-08-16T02:14:26.463Z,951.9200
2022-08-16T02:14:38.414Z,951.9200
2022-08-16T02:14:49.539Z,951.9000
2022-08-16T02:15:02.231Z,951.9000
2022-08-16T02:15:13.375Z,951.9400
2022-08-16T02:15:25.918Z,951.9200
2022-08-16T02:15:40.405Z,951.9400
2022-08-16T02:15:54.513Z,951.9400
2022-08-16T02:16:06.073Z,951.9400
2022-08-16T02:16:23.043Z,951.9000
2022-08-16T02:16:35.163Z,951.9000
2022-08-16T02:16:46.706Z,951.9000
2022-08-16T02:16:57.808Z,951.9500
2022-08-16T02:17:08.873Z,951.9400
2022-08-16T02:17:19.919Z,951.9400
2022-08-16T02:17:31.186Z,951.9400
2022-08-16T02:17:42.318Z,951.9400
2022-08-16T02:17:53.760Z,951.9500
2022-08-16T02:18:04.792Z,951.9500
2022-08-16T02:18:18.509Z,951.9500
2022-08-16T02:18:29.940Z,951.9500
2022-08-16T02:18:41.046Z,951.9400
2022-08-16T02:18:53.822Z,951.9400
2022-08-16T02:19:16.503Z,951.9500
2022-08-16T02:19:23.072Z,951.9400
2022-08-16T02:19:58.840Z,951.9400
2022-08-16T02:19:59.286Z,951.9500
2022-08-16T02:20:11.830Z,951.9400
2022-08-16T02:20:26.459Z,951.9500
2022-08-16T02:20:39.518Z,951.9700
2022-08-16T02:20:53.885Z,951.9500
2022-08-16T02:21:04.982Z,951.9500
2022-08-16T02:21:16.053Z,951.9700
2022-08-16T02:21:31.447Z,951.9500
2022-08-16T02:22:08.568Z,951.9700
2022-08-16T02:22:09.096Z,951.9500
2022-08-16T02:22:33.478Z,951.9500
2022-08-16T02:22:46.829Z,951.9500
2022-08-16T02:22:51.431Z,951.9400
2022-08-16T02:23:06.510Z,951.9700
2022-08-16T02:23:18.163Z,951.9700
2022-08-16T02:23:29.604Z,951.9700
2022-08-16T02:23:40.845Z,951.9500
2022-08-16T02:23:53.360Z,951.9700
2022-08-16T02:24:31.638Z,951.9500
2022-08-16T02:24:31.707Z,951.9400
2022-08-16T02:24:45.893Z,951.9700
2022-08-16T02:24:57.933Z,951.9700
2022-08-16T02:25:10.096Z,951.9500
2022-08-16T02:25:21.373Z,951.9700
2022-08-16T02:25:52.296Z,951.9700
2022-08-16T02:25:52.634Z,951.9500
2022-08-16T02:26:04.933Z,951.9500
2022-08-16T02:26:18.756Z,951.9700
2022-08-16T02:26:34.269Z,951.9700
2022-08-16T02:26:45.803Z,951.9900
2022-08-16T02:27:01.330Z,951.9700
2022-08-16T02:27:12.388Z,951.9900
2022-08-16T02:27:23.558Z,951.9700
2022-08-16T02:27:34.604Z,951.9700
2022-08-16T02:27:50.776Z,951.9900
2022-08-16T02:28:02.824Z,952.0100
2022-08-16T02:28:16.582Z,951.9500
2022-08-16T02:28:28.581Z,951.9700
2022-08-16T02:28:45.291Z,951.9700
2022-08-16T02:28:58.350Z,951.9500
2022-08-16T02:29:12.998Z,951.9500
2022-08-16T02:29:24.414Z,951.9500
2022-08-16T02:29:41.990Z,951.9500
2022-08-16T02:30:05.208Z,951.9500
2022-08-16T02:30:10.127Z,951.9500
2022-08-16T02:30:37.590Z,951.9500
2022-08-16T02:30:50.051Z,951.9700
2022-08-16T02:31:01.039Z,951.9400
2022-08-16T02:31:12.122Z,951.9400
2022-08-16T02:32:02.856Z,951.9400
2022-08-16T02:32:03.434Z,951.9400
2022-08-16T02:32:04.069Z,951.9400
2022-08-16T02:32:50.649Z,951.9000
2022-08-16T02:32:50.708Z,951.9200
2022-08-16T02:32:50.709Z,951.9200
2022-08-16T02:33:03.421Z,951.9200
2022-08-16T02:33:15.299Z,951.9200
2022-08-16T02:33:43.479Z,951.9000
2022-08-16T02:33:50.198Z,951.9000
2022-08-16T02:34:00.576Z,951.9000
2022-08-16T02:34:17.531Z,951.9200
2022-08-16T02:34:32.714Z,951.9200
2022-08-16T02:34:45.739Z,951.9200
2022-08-16T02:35:01.759Z,951.9200
2022-08-16T02:35:12.921Z,951.9200
2022-08-16T02:35:27.407Z,951.9200
2022-08-16T02:35:49.735Z,951.9000
2022-08-16T02:35:58.357Z,951.9200
2022-08-16T02:36:14.555Z,951.9400
2022-08-16T02:36:42.433Z,951.9200
2022-08-16T02:36:49.803Z,951.9200
2022-08-16T02:37:02.316Z,951.9400
2022-08-16T02:37:13.386Z,951.9000
2022-08-16T02:37:52.123Z,951.9000
2022-08-16T02:37:52.485Z,951.9200
2022-08-16T02:38:08.993Z,951.9200
2022-08-16T02:38:20.442Z,951.9200
2022-08-16T02:38:32.334Z,951.9200
2022-08-16T02:38:43.414Z,951.9000
2022-08-16T02:38:54.629Z,951.9000
2022-08-16T02:39:05.679Z,951.9000
2022-08-16T02:39:16.974Z,951.9000
2022-08-16T02:39:30.259Z,951.8800
2022-08-16T02:39:41.601Z,951.8800
2022-08-16T02:39:54.120Z,951.9000
2022-08-16T02:40:05.520Z,951.8800
2022-08-16T02:40:18.011Z,951.8800
2022-08-16T02:40:29.084Z,951.8800
2022-08-16T02:40:40.238Z,951.8600
2022-08-16T02:40:54.369Z,951.8600
2022-08-16T02:41:09.745Z,951.8600
2022-08-16T02:41:22.931Z,951.8800